Hartford, Connecticut
Current Conditions -  °F | °C
As of 11:53 AM on Thursday 23 Oct 2014 (Local Time) from KHFD Reporting Station
Overcast Overcast  
Wind Chill: 52°   Ceiling: 1800
Heat Index: 52°   Visibility: 10mi
Dew Point: 46°   Wind: 12mph
Humidity: 80%   Direction: 360°N
Pressure: 29.67"   Gusts: 23mph
Location:  41.76°N, 72.67°W
Report Text: KHFD 231553Z 36010G20KT 10SM OVC018 11/08 A2967 RMK AO2 SLP047 T01110078
Loading
Personal Weather Stations






























Interactive Weather Map
Tropical Storm Tracking
New forecast layout! Learn more

10-Day Weather Forecast

Advertisements
Track Severe Weather on mobile